createdAt,value
2022-09-20T00:01:30.565Z,97.64
2022-09-20T00:04:33.472Z,95.98
2022-09-20T00:07:38.829Z,96.47
2022-09-20T00:10:43.004Z,96.23
2022-09-20T00:13:47.458Z,95.71
2022-09-20T00:16:50.276Z,96.77
2022-09-20T00:19:52.897Z,95.41
2022-09-20T00:22:55.734Z,94.14
2022-09-20T00:26:01.807Z,95.34
2022-09-20T00:29:05.508Z,93.84
2022-09-20T00:32:08.062Z,93.66
2022-09-20T00:35:11.027Z,95.17
2022-09-20T00:38:14.747Z,93.53
2022-09-20T00:41:17.581Z,94.06
2022-09-20T00:44:53.791Z,93.34
2022-09-20T00:48:02.394Z,92.82
2022-09-20T00:51:14.593Z,94.82
2022-09-20T00:54:20.676Z,92.09
2022-09-20T00:57:23.834Z,92.49
2022-09-20T01:00:27.731Z,93.64
2022-09-20T01:03:33.189Z,94.27
2022-09-20T01:06:36.600Z,93.88
2022-09-20T01:09:39.171Z,93.26
2022-09-20T01:12:46.193Z,93.07
2022-09-20T01:15:50.553Z,93.90
2022-09-20T01:18:56.182Z,93.19
2022-09-20T01:22:04.284Z,94.29
2022-09-20T01:25:30.202Z,93.22
2022-09-20T01:28:33.842Z,93.31
2022-09-20T01:31:45.048Z,93.54
2022-09-20T01:34:51.452Z,94.11
2022-09-20T01:38:25.351Z,94.18
2022-09-20T01:41:37.491Z,96.24
2022-09-20T01:45:20.000Z,95.89
2022-09-20T01:48:35.469Z,95.55
2022-09-20T01:52:17.713Z,94.94
2022-09-20T01:55:22.600Z,95.19
2022-09-20T01:59:23.295Z,94.81
2022-09-20T02:02:55.778Z,94.98
2022-09-20T02:06:24.797Z,95.67
2022-09-20T02:10:08.942Z,94.58
2022-09-20T02:13:31.647Z,94.62
2022-09-20T02:16:53.005Z,94.31
2022-09-20T02:20:02.221Z,94.56
2022-09-20T02:23:19.854Z,94.42
2022-09-20T02:27:02.137Z,94.42
2022-09-20T02:30:43.882Z,94.25
2022-09-20T02:33:53.007Z,94.07
2022-09-20T02:37:38.374Z,93.66
2022-09-20T02:41:06.134Z,94.73
2022-09-20T02:44:46.822Z,94.04
2022-09-20T02:47:50.123Z,94.69
2022-09-20T02:51:06.083Z,94.67
2022-09-20T02:54:43.046Z,94.62
2022-09-20T02:58:14.838Z,95.65
2022-09-20T03:01:29.836Z,95.78
2022-09-20T03:04:47.982Z,95.74
2022-09-20T03:08:03.267Z,96.23
2022-09-20T03:11:24.397Z,96.09
2022-09-20T03:14:53.965Z,96.29
2022-09-20T03:17:59.289Z,96.25
2022-09-20T03:21:16.931Z,96.85
2022-09-20T03:24:56.771Z,95.62
2022-09-20T03:28:05.581Z,95.64
2022-09-20T03:31:31.126Z,95.86
2022-09-20T03:34:52.512Z,96.43
2022-09-20T03:37:58.054Z,97.02
2022-09-20T03:41:21.001Z,98.28
2022-09-20T03:44:43.174Z,97.49
2022-09-20T03:48:01.767Z,98.11
2022-09-20T03:51:23.795Z,98.48
2022-09-20T03:54:29.904Z,98.64
2022-09-20T03:57:42.934Z,97.45
2022-09-20T04:00:53.030Z,96.46
2022-09-20T04:04:30.785Z,98.29
2022-09-20T04:07:52.203Z,97.44
2022-09-20T04:11:09.019Z,98.04
2022-09-20T04:14:33.188Z,98.74
2022-09-20T04:17:35.996Z,99.08
2022-09-20T04:20:57.931Z,98.68
2022-09-20T04:24:10.261Z,98.31
2022-09-20T04:27:24.822Z,99.21
2022-09-20T04:30:32.920Z,99.85
2022-09-20T04:33:43.155Z,99.76
2022-09-20T04:37:06.234Z,100.00
2022-09-20T04:40:29.172Z,100.00
2022-09-20T04:43:53.662Z,98.69
2022-09-20T04:47:15.529Z,97.18
2022-09-20T04:50:30.757Z,97.93
2022-09-20T04:54:22.891Z,98.62
2022-09-20T04:57:45.864Z,97.87
2022-09-20T05:01:19.676Z,96.91
2022-09-20T05:04:25.182Z,92.30
2022-09-20T05:07:56.848Z,87.36
2022-09-20T05:11:27.686Z,83.45
2022-09-20T05:14:45.154Z,81.40
2022-09-20T05:18:02.789Z,80.44
2022-09-20T05:21:34.326Z,82.21
2022-09-20T05:25:17.529Z,79.75
2022-09-20T05:28:33.522Z,75.58
2022-09-20T05:31:40.450Z,76.73
2022-09-20T05:34:53.813Z,73.17
2022-09-20T05:38:08.408Z,72.34
2022-09-20T05:41:38.946Z,69.97
2022-09-20T05:44:58.255Z,69.80
2022-09-20T05:48:21.300Z,68.10
2022-09-20T05:51:52.356Z,66.41
2022-09-20T05:55:14.183Z,66.35
2022-09-20T05:58:57.723Z,64.25
2022-09-20T06:03:02.076Z,63.01
2022-09-20T06:06:22.666Z,63.03
2022-09-20T06:10:03.959Z,62.21
2022-09-20T06:13:38.127Z,61.11
2022-09-20T06:16:49.053Z,59.22
2022-09-20T06:20:10.649Z,60.05
2022-09-20T06:23:14.587Z,59.69
2022-09-20T06:26:26.995Z,56.80
2022-09-20T06:29:34.689Z,59.75
2022-09-20T06:32:53.846Z,58.27
2022-09-20T06:36:48.776Z,58.35
2022-09-20T06:40:33.758Z,60.71
2022-09-20T06:43:40.629Z,56.34
2022-09-20T06:46:43.893Z,56.81
2022-09-20T06:49:47.745Z,56.74
2022-09-20T06:52:50.903Z,57.24
2022-09-20T06:55:53.865Z,56.81
2022-09-20T06:58:57.326Z,55.94
2022-09-20T07:01:59.960Z,53.81
2022-09-20T07:05:02.878Z,51.16
2022-09-20T07:08:05.470Z,53.69
2022-09-20T07:11:13.566Z,51.73
2022-09-20T07:14:16.255Z,53.76
2022-09-20T07:17:22.412Z,51.46
2022-09-20T07:20:30.723Z,51.74
2022-09-20T07:23:33.869Z,52.06
2022-09-20T07:26:38.928Z,54.09
2022-09-20T07:29:41.977Z,52.13
2022-09-20T07:32:46.501Z,51.29
2022-09-20T07:35:52.916Z,49.47
2022-09-20T07:38:55.955Z,49.91
2022-09-20T07:41:58.902Z,49.24
2022-09-20T07:45:04.034Z,50.80
2022-09-20T07:48:09.576Z,50.34
2022-09-20T07:51:13.788Z,49.94
2022-09-20T07:54:20.533Z,47.62
2022-09-20T07:57:23.672Z,45.84
2022-09-20T08:00:26.629Z,47.65
2022-09-20T08:03:33.612Z,46.44
2022-09-20T08:06:38.024Z,45.58
2022-09-20T08:09:41.077Z,45.25
2022-09-20T08:16:11.167Z,47.10
2022-09-20T08:19:22.881Z,46.58
2022-09-20T08:22:26.603Z,45.77
2022-09-20T08:25:29.693Z,44.56
2022-09-20T08:28:33.524Z,48.32
2022-09-20T08:31:40.315Z,45.54
2022-09-20T08:34:43.872Z,48.80
2022-09-20T08:37:47.684Z,48.23
2022-09-20T08:40:50.853Z,44.34
2022-09-20T08:44:00.523Z,47.41
2022-09-20T08:47:12.427Z,48.22
2022-09-20T08:50:17.911Z,52.40
2022-09-20T08:53:21.613Z,48.92
2022-09-20T08:56:36.454Z,48.41
2022-09-20T08:59:46.970Z,47.14
2022-09-20T09:03:12.950Z,45.89
2022-09-20T09:06:24.738Z,44.56
2022-09-20T09:09:37.655Z,46.28
2022-09-20T09:12:48.693Z,43.84
2022-09-20T09:19:47.453Z,47.33
2022-09-20T09:23:09.000Z,49.05
2022-09-20T09:26:22.526Z,50.48
2022-09-20T09:29:26.066Z,49.71
2022-09-20T09:33:30.664Z,48.34
2022-09-20T09:36:44.605Z,48.28
2022-09-20T09:40:05.951Z,48.65
2022-09-20T09:43:21.581Z,48.79
2022-09-20T09:46:31.142Z,47.21
2022-09-20T09:49:36.786Z,48.01
2022-09-20T09:52:40.619Z,48.13
2022-09-20T09:55:53.745Z,44.40
2022-09-20T09:59:27.791Z,43.18
2022-09-20T10:02:55.023Z,41.45
2022-09-20T10:06:52.559Z,38.72
2022-09-20T10:10:00.608Z,38.80
2022-09-20T10:13:22.855Z,38.38
2022-09-20T10:16:46.999Z,41.79
2022-09-20T10:20:20.342Z,44.30
2022-09-20T10:24:03.612Z,40.23
2022-09-20T10:27:19.441Z,40.53
2022-09-20T10:30:36.517Z,39.67
2022-09-20T10:34:20.855Z,39.80
2022-09-20T10:37:40.494Z,40.64
2022-09-20T10:41:14.527Z,38.44
2022-09-20T10:44:21.887Z,40.26
2022-09-20T10:47:36.102Z,43.69
2022-09-20T10:51:02.702Z,40.70
2022-09-20T10:54:26.905Z,39.18
2022-09-20T10:57:46.571Z,42.80
2022-09-20T11:01:12.365Z,45.07
2022-09-20T11:04:38.907Z,43.87
2022-09-20T11:08:08.653Z,44.15
2022-09-20T11:11:21.870Z,41.90
2022-09-20T11:14:34.731Z,42.76
2022-09-20T11:17:46.183Z,47.16
2022-09-20T11:20:57.560Z,46.00
2022-09-20T11:24:06.311Z,42.50
2022-09-20T11:27:22.998Z,40.58
2022-09-20T11:30:25.802Z,39.81
2022-09-20T11:33:41.190Z,40.36
2022-09-20T11:36:53.532Z,41.35
2022-09-20T11:40:02.620Z,42.49
2022-09-20T11:43:08.454Z,46.35
2022-09-20T11:46:19.175Z,47.28
2022-09-20T11:49:28.862Z,50.09
2022-09-20T11:52:47.010Z,50.65
2022-09-20T11:56:22.915Z,51.41
2022-09-20T11:59:40.441Z,51.55
2022-09-20T12:02:53.994Z,51.54
2022-09-20T12:06:02.345Z,52.37
2022-09-20T12:09:35.221Z,50.73
2022-09-20T12:12:45.554Z,48.62
2022-09-20T12:16:03.621Z,46.71
2022-09-20T12:19:09.993Z,46.60
2022-09-20T12:22:13.748Z,47.64
2022-09-20T12:25:39.594Z,51.65
2022-09-20T12:28:45.110Z,49.59
2022-09-20T12:31:55.832Z,49.92
2022-09-20T12:35:01.100Z,51.13
2022-09-20T12:38:19.059Z,50.61
2022-09-20T12:41:51.375Z,52.22
2022-09-20T12:45:07.382Z,53.46
2022-09-20T12:48:20.015Z,55.15
2022-09-20T12:52:10.316Z,55.05
2022-09-20T12:55:27.242Z,53.49
2022-09-20T12:58:38.399Z,53.02
2022-09-20T13:01:41.942Z,51.61
2022-09-20T13:04:55.483Z,51.46
2022-09-20T13:08:09.919Z,50.53
2022-09-20T13:11:18.423Z,51.37
2022-09-20T13:14:26.860Z,50.40
2022-09-20T13:17:31.478Z,53.38
2022-09-20T13:20:36.738Z,53.02
2022-09-20T13:23:50.284Z,53.45
2022-09-20T13:26:55.874Z,52.55
2022-09-20T13:30:21.765Z,53.67
2022-09-20T13:33:25.537Z,51.96
2022-09-20T13:36:30.401Z,53.45
2022-09-20T13:39:37.285Z,54.13
2022-09-20T13:42:44.639Z,54.26
2022-09-20T13:45:52.352Z,54.74
2022-09-20T13:49:15.181Z,53.42
2022-09-20T13:52:26.659Z,54.56
2022-09-20T13:55:38.506Z,53.08
2022-09-20T13:58:42.723Z,54.03
2022-09-20T14:01:54.511Z,52.72
2022-09-20T14:05:00.825Z,52.92
2022-09-20T14:08:03.441Z,53.51
2022-09-20T14:11:19.740Z,52.50
2022-09-20T14:14:24.252Z,54.79
2022-09-20T14:17:32.342Z,54.04
2022-09-20T14:20:35.264Z,53.93
2022-09-20T14:23:58.263Z,54.17
2022-09-20T14:27:20.247Z,54.90
2022-09-20T14:30:36.363Z,56.02
2022-09-20T14:33:45.793Z,54.75
2022-09-20T14:36:50.639Z,54.73
2022-09-20T14:40:01.933Z,51.47
2022-09-20T14:43:06.662Z,49.86
2022-09-20T14:46:17.202Z,52.33
2022-09-20T14:49:26.326Z,51.96
2022-09-20T14:52:36.439Z,51.12
2022-09-20T14:56:00.721Z,52.03
2022-09-20T14:59:13.827Z,51.52
2022-09-20T15:02:17.059Z,52.33
2022-09-20T15:05:26.132Z,51.24
2022-09-20T15:08:29.416Z,52.63
2022-09-20T15:11:40.870Z,51.14
2022-09-20T15:14:49.061Z,50.39
2022-09-20T15:17:51.842Z,50.99
2022-09-20T15:20:55.627Z,51.13
2022-09-20T15:23:58.238Z,51.90
2022-09-20T15:27:02.742Z,51.44
2022-09-20T15:30:05.810Z,51.60
2022-09-20T15:33:10.261Z,52.45
2022-09-20T15:36:14.292Z,51.58
2022-09-20T15:39:17.512Z,52.67
2022-09-20T15:42:21.610Z,54.49
2022-09-20T15:45:26.178Z,56.14
2022-09-20T15:48:30.799Z,56.88
2022-09-20T15:51:34.057Z,57.53
2022-09-20T15:54:36.839Z,59.99
2022-09-20T15:57:42.050Z,61.26
2022-09-20T16:00:48.661Z,59.10
2022-09-20T16:03:55.118Z,56.65
2022-09-20T16:06:57.840Z,58.22
2022-09-20T16:10:00.972Z,60.28
2022-09-20T16:13:04.024Z,60.67
2022-09-20T16:16:09.762Z,60.65
2022-09-20T16:19:20.157Z,62.39
2022-09-20T16:22:23.794Z,63.79
2022-09-20T16:25:30.425Z,65.11
2022-09-20T16:28:33.910Z,64.01
2022-09-20T16:31:47.782Z,65.11
2022-09-20T16:34:54.787Z,64.92
2022-09-20T16:37:58.807Z,66.54
2022-09-20T16:41:01.846Z,66.27
2022-09-20T16:44:04.850Z,67.62
2022-09-20T16:51:33.239Z,69.17
2022-09-20T16:54:57.925Z,69.54
2022-09-20T16:58:02.745Z,71.18
2022-09-20T17:01:08.783Z,72.32
2022-09-20T17:04:15.091Z,72.49
2022-09-20T17:07:18.041Z,74.52
2022-09-20T17:10:24.911Z,76.21
2022-09-20T17:13:34.332Z,73.30
2022-09-20T17:16:45.326Z,72.86
2022-09-20T17:19:48.582Z,72.70
2022-09-20T17:22:55.019Z,75.55
2022-09-20T17:26:07.105Z,76.04
2022-09-20T17:29:20.190Z,76.29
2022-09-20T17:32:24.027Z,77.02
2022-09-20T17:35:28.289Z,77.95
2022-09-20T17:38:33.694Z,78.04
2022-09-20T17:41:37.440Z,78.66
2022-09-20T17:44:43.402Z,77.58
2022-09-20T17:47:46.389Z,77.76
2022-09-20T17:51:12.875Z,78.19
2022-09-20T17:54:16.065Z,78.58
2022-09-20T17:57:19.917Z,79.18
2022-09-20T18:00:22.447Z,78.04
2022-09-20T18:03:25.387Z,79.65
2022-09-20T18:09:39.793Z,79.89
2022-09-20T18:13:04.791Z,79.01
2022-09-20T18:16:12.467Z,77.51
2022-09-20T18:19:16.300Z,76.98
2022-09-20T18:22:42.913Z,77.94
2022-09-20T18:26:04.288Z,77.55
2022-09-20T18:29:18.154Z,76.84
2022-09-20T18:32:20.881Z,77.36
2022-09-20T18:35:28.187Z,78.00
2022-09-20T18:38:33.265Z,78.58
2022-09-20T18:42:03.290Z,78.93
2022-09-20T18:45:06.624Z,79.59
2022-09-20T18:48:09.552Z,79.48
2022-09-20T18:51:12.234Z,79.55
2022-09-20T18:54:17.125Z,80.86
2022-09-20T18:57:22.985Z,80.97
2022-09-20T19:00:27.079Z,82.04
2022-09-20T19:03:50.372Z,82.30
2022-09-20T19:07:12.360Z,82.74
2022-09-20T19:10:38.384Z,82.22
2022-09-20T19:13:51.998Z,83.37
2022-09-20T19:17:25.102Z,82.92
2022-09-20T19:20:56.128Z,82.85
2022-09-20T19:24:38.793Z,83.43
2022-09-20T19:27:42.039Z,82.34
2022-09-20T19:30:47.427Z,81.76
2022-09-20T19:33:54.183Z,81.64
2022-09-20T19:37:05.603Z,80.36
2022-09-20T19:40:28.196Z,79.68
2022-09-20T19:43:57.092Z,80.47
2022-09-20T19:47:19.725Z,79.46
2022-09-20T19:50:33.191Z,81.24
2022-09-20T19:53:40.613Z,81.56
2022-09-20T19:56:56.514Z,82.50
2022-09-20T20:00:33.743Z,82.73
2022-09-20T20:03:36.984Z,83.26
2022-09-20T20:06:55.099Z,83.59
2022-09-20T20:10:25.147Z,84.36
2022-09-20T20:13:49.994Z,85.71
2022-09-20T20:17:06.278Z,85.18
2022-09-20T20:20:33.943Z,84.93
2022-09-20T20:23:40.300Z,85.24
2022-09-20T20:26:43.110Z,86.43
2022-09-20T20:29:47.168Z,85.42
2022-09-20T20:32:51.305Z,86.03
2022-09-20T20:35:55.855Z,86.77
2022-09-20T20:38:58.450Z,86.38
2022-09-20T20:42:02.825Z,87.22
2022-09-20T20:45:05.999Z,87.48
2022-09-20T20:48:08.802Z,86.99
2022-09-20T20:51:13.596Z,86.91
2022-09-20T20:54:16.510Z,86.24
2022-09-20T20:57:19.071Z,87.23
2022-09-20T21:00:22.021Z,87.30
2022-09-20T21:03:24.571Z,87.39
2022-09-20T21:06:33.083Z,87.36
2022-09-20T21:09:35.978Z,88.02
2022-09-20T21:12:38.877Z,88.80
2022-09-20T21:15:41.605Z,88.04
2022-09-20T21:18:46.536Z,88.73
2022-09-20T21:21:49.048Z,88.76
2022-09-20T21:24:53.069Z,90.61
2022-09-20T21:27:55.734Z,91.34
2022-09-20T21:31:02.788Z,92.27
2022-09-20T21:34:09.606Z,91.98
2022-09-20T21:37:12.760Z,92.47
2022-09-20T21:40:15.411Z,92.10
2022-09-20T21:43:18.450Z,93.67
2022-09-20T21:46:23.770Z,93.79
2022-09-20T21:49:26.737Z,94.70
2022-09-20T21:52:29.932Z,94.55
2022-09-20T21:55:34.233Z,93.94
2022-09-20T21:58:40.071Z,94.74
2022-09-20T22:01:42.964Z,95.40
2022-09-20T22:04:45.916Z,95.35
2022-09-20T22:07:48.810Z,97.12
2022-09-20T22:10:58.442Z,96.50
2022-09-20T22:14:01.135Z,96.29
2022-09-20T22:17:04.043Z,95.54
2022-09-20T22:20:07.149Z,95.97
2022-09-20T22:23:10.035Z,96.04
2022-09-20T22:26:19.912Z,96.54
2022-09-20T22:29:22.810Z,96.42
2022-09-20T22:32:25.327Z,96.68
2022-09-20T22:35:28.198Z,96.72
2022-09-20T22:38:31.418Z,96.89
2022-09-20T22:41:34.965Z,96.90
2022-09-20T22:44:37.789Z,98.37
2022-09-20T22:47:40.801Z,97.94
2022-09-20T22:50:43.403Z,98.39
2022-09-20T22:53:47.939Z,98.56
2022-09-20T22:57:04.166Z,99.03
2022-09-20T23:00:07.937Z,100.00
2022-09-20T23:03:10.543Z,99.47
2022-09-20T23:06:22.509Z,99.69
2022-09-20T23:09:28.285Z,99.33
2022-09-20T23:12:31.235Z,99.54
2022-09-20T23:15:33.737Z,100.00
2022-09-20T23:18:36.830Z,100.00
2022-09-20T23:21:41.087Z,100.00
2022-09-20T23:24:44.545Z,100.00
2022-09-20T23:27:47.045Z,100.00
2022-09-20T23:30:50.630Z,100.00
2022-09-20T23:33:56.021Z,100.00
2022-09-20T23:36:58.905Z,100.00
2022-09-20T23:40:01.603Z,100.00
2022-09-20T23:43:04.603Z,100.00
2022-09-20T23:46:08.175Z,100.00
2022-09-20T23:49:11.233Z,100.00
2022-09-20T23:52:13.784Z,100.00
2022-09-20T23:55:16.703Z,100.00
2022-09-20T23:58:19.386Z,100.00
